createdAt,value
2019-03-08T17:49:42.634Z,7.20
2019-03-08T17:52:16.178Z,7.10
2019-03-08T17:54:47.054Z,7.10
2019-03-08T17:57:20.637Z,7.00
2019-03-08T17:59:54.277Z,7.00
2019-03-08T18:02:40.419Z,7.00
2019-03-08T18:05:11.240Z,7.00
2019-03-08T18:07:42.093Z,6.90
2019-03-08T18:10:15.781Z,6.90
2019-03-08T18:12:49.528Z,6.90
2019-03-08T18:15:23.164Z,6.90
2019-03-08T18:18:02.727Z,6.90
2019-03-08T18:20:50.066Z,6.90
2019-03-08T18:23:27.058Z,6.80
2019-03-08T18:26:00.574Z,6.80
2019-03-08T18:28:32.527Z,6.70
2019-03-08T18:31:19.826Z,6.70
2019-03-08T18:33:56.498Z,6.70
2019-03-08T18:36:36.202Z,6.60
2019-03-08T18:39:13.802Z,6.60
2019-03-08T18:42:02.976Z,6.60
2019-03-08T18:44:39.762Z,6.50
2019-03-08T18:47:10.553Z,6.50
2019-03-08T18:49:57.688Z,6.50
2019-03-08T18:52:31.256Z,6.50
2019-03-08T18:55:14.445Z,6.50
2019-03-08T18:57:45.443Z,6.40
2019-03-08T19:00:16.349Z,6.40
2019-03-08T19:02:53.192Z,6.40
2019-03-08T19:05:35.774Z,6.40
2019-03-08T19:08:06.639Z,6.40
2019-03-08T19:10:40.502Z,6.40
2019-03-08T19:13:20.319Z,6.40
2019-03-08T19:15:54.053Z,6.30
2019-03-08T19:18:34.027Z,6.30
2019-03-08T19:21:04.824Z,6.20
2019-03-08T19:23:50.751Z,6.20
2019-03-08T19:26:24.371Z,6.20
2019-03-08T19:29:00.922Z,6.20
2019-03-08T19:31:31.785Z,6.20
2019-03-08T19:34:05.601Z,6.20
2019-03-08T19:36:42.567Z,6.20
2019-03-08T19:39:31.542Z,6.20
2019-03-08T19:42:02.410Z,6.20
2019-03-08T19:44:42.287Z,6.30
2019-03-08T19:47:19.834Z,6.30
2019-03-08T19:49:59.829Z,6.20
2019-03-08T19:52:36.846Z,6.20
2019-03-08T19:55:11.122Z,6.20
2019-03-08T19:57:54.300Z,6.20
2019-03-08T20:00:33.729Z,6.20
2019-03-08T20:03:07.015Z,6.20
2019-03-08T20:05:40.840Z,6.30
2019-03-08T20:08:30.179Z,6.30
2019-03-08T20:11:00.991Z,6.40
2019-03-08T20:13:37.884Z,6.40
2019-03-08T20:16:09.093Z,6.40
2019-03-08T20:18:56.364Z,6.30
2019-03-08T20:21:43.926Z,6.20
2019-03-08T20:24:29.938Z,6.10
2019-03-08T20:27:00.871Z,6.00
2019-03-08T20:29:34.836Z,6.00
2019-03-08T20:32:17.615Z,6.00
2019-03-08T20:34:53.991Z,6.00
2019-03-08T20:37:27.805Z,6.10
2019-03-08T20:40:11.144Z,6.10
2019-03-08T20:42:44.011Z,6.20
2019-03-08T20:45:14.737Z,6.30
2019-03-08T20:47:43.980Z,6.40
2019-03-08T20:50:13.306Z,6.50
2019-03-08T20:52:42.526Z,6.50
2019-03-08T20:55:11.776Z,6.50
2019-03-08T20:57:41.051Z,6.50
2019-03-08T21:00:15.424Z,6.40
2019-03-08T21:02:44.758Z,6.40
2019-03-08T21:05:13.959Z,6.40
2019-03-08T21:07:43.103Z,6.40
2019-03-08T21:10:13.888Z,6.40
2019-03-08T21:12:43.181Z,6.40
2019-03-08T21:15:13.751Z,6.30
2019-03-08T21:17:42.962Z,6.30
2019-03-08T21:20:14.825Z,6.30
2019-03-08T21:22:44.083Z,6.30
2019-03-08T21:25:15.258Z,6.30
2019-03-08T21:27:44.425Z,6.20
2019-03-08T21:30:18.336Z,6.30
2019-03-08T21:32:47.647Z,6.30
2019-03-08T21:35:16.934Z,6.30
2019-03-08T21:37:46.547Z,6.20
2019-03-08T21:40:15.709Z,6.10
2019-03-08T21:42:44.861Z,6.20
2019-03-08T21:45:15.463Z,6.20
2019-03-08T21:47:44.627Z,6.20
2019-03-08T21:50:17.823Z,6.30
2019-03-08T21:52:47.063Z,6.30
2019-03-08T21:55:16.219Z,6.30
2019-03-08T21:57:45.383Z,6.30
2019-03-08T22:00:17.406Z,6.40
2019-03-08T22:02:46.951Z,6.40
2019-03-08T22:05:17.746Z,6.40
2019-03-08T22:07:46.939Z,6.40
2019-03-08T22:10:17.854Z,6.40
2019-03-08T22:12:47.100Z,6.40
2019-03-08T22:15:16.259Z,6.40
2019-03-08T22:17:45.499Z,6.40
2019-03-08T22:20:14.646Z,6.40
2019-03-08T22:22:43.860Z,6.40
2019-03-08T22:25:14.085Z,6.40
2019-03-08T22:27:43.520Z,6.40
2019-03-08T22:30:18.900Z,6.50
2019-03-08T22:32:48.070Z,6.50
2019-03-08T22:35:17.240Z,6.50
2019-03-08T22:37:46.514Z,6.50
2019-03-08T22:40:15.707Z,6.50
2019-03-08T22:42:44.924Z,6.50
2019-03-08T22:45:14.124Z,6.60
2019-03-08T22:47:43.330Z,6.60
2019-03-08T22:50:14.707Z,6.60
2019-03-08T22:52:43.870Z,6.60
2019-03-08T22:55:14.389Z,6.60
2019-03-08T22:57:44.576Z,6.70
2019-03-08T23:00:55.074Z,6.60
2019-03-08T23:03:24.927Z,6.60
2019-03-08T23:05:54.088Z,6.60
2019-03-08T23:08:23.219Z,6.60
2019-03-08T23:10:52.390Z,6.60
2019-03-08T23:13:21.531Z,6.70
2019-03-08T23:15:50.690Z,6.70
2019-03-08T23:18:19.866Z,6.70
2019-03-08T23:20:50.088Z,6.70
2019-03-08T23:23:19.302Z,6.70
2019-03-08T23:25:48.468Z,6.80
2019-03-08T23:28:19.242Z,6.80
2019-03-08T23:30:50.054Z,6.80
2019-03-08T23:33:19.216Z,6.80
2019-03-08T23:35:48.493Z,6.80
2019-03-08T23:38:17.704Z,6.90
2019-03-08T23:40:46.859Z,6.90
2019-03-08T23:43:16.051Z,6.90
2019-03-08T23:45:45.178Z,6.90
2019-03-08T23:48:14.373Z,6.90
2019-03-08T23:50:43.525Z,6.90
2019-03-08T23:53:13.750Z,6.90
2019-03-08T23:55:42.950Z,7.00
2019-03-08T23:58:12.118Z,7.00
